Marsa Alam, Egypt
Current Conditions -  °F | °C
As of 11:00 AM on Friday 24 Oct 2014 (Local Time) from HEMA Reporting Station
Clear Clear  
Wind Chill: 86°   Ceiling: Unl
Heat Index: 86°   Visibility: 6mi
Dew Point: 45°   Wind: 17mph
Humidity: 23%   Direction: 350°N
Pressure: 30"   Gusts: NA
Location:  25.55°N, 34.58°E
Report Text: HEMA 240900Z 35015KT CAVOK 30/07 Q1016 NOSIG
Loading
Personal Weather Stations






























Interactive Weather Map
Tropical Storm Tracking
New forecast layout! Learn more

10-Day Weather Forecast

Advertisements
Track Severe Weather on mobile